createdAt,value
2022-11-12T00:01:04.930Z,12.55
2022-11-12T00:03:34.109Z,11.88
2022-11-12T00:06:01.827Z,11.38
2022-11-12T00:08:29.981Z,10.57
2022-11-12T00:10:57.850Z,11.20
2022-11-12T00:13:25.543Z,10.70
2022-11-12T00:15:53.254Z,11.60
2022-11-12T00:18:21.310Z,11.30
2022-11-12T00:20:50.511Z,11.50
2022-11-12T00:23:18.196Z,10.32
2022-11-12T00:25:45.855Z,10.80
2022-11-12T00:28:13.540Z,10.52
2022-11-12T00:30:42.262Z,9.73
2022-11-12T00:33:10.010Z,11.20
2022-11-12T00:35:37.812Z,11.10
2022-11-12T00:38:06.976Z,9.95
2022-11-12T00:40:34.795Z,9.73
2022-11-12T00:43:02.526Z,10.90
2022-11-12T00:45:30.267Z,10.35
2022-11-12T00:47:58.310Z,11.25
2022-11-12T00:50:26.633Z,9.88
2022-11-12T00:52:54.817Z,9.90
2022-11-12T00:55:23.882Z,9.65
2022-11-12T00:57:51.904Z,11.30
2022-11-12T01:00:22.335Z,10.35
2022-11-12T01:02:51.375Z,12.05
2022-11-12T01:05:20.217Z,11.35
2022-11-12T01:07:53.065Z,10.57
2022-11-12T01:10:23.922Z,10.18
2022-11-12T01:12:51.709Z,10.43
2022-11-12T01:15:19.503Z,9.60
2022-11-12T01:17:47.261Z,9.70
2022-11-12T01:20:14.938Z,9.88
2022-11-12T01:22:42.645Z,9.93
2022-11-12T01:25:10.478Z,10.23
2022-11-12T01:27:39.613Z,9.75
2022-11-12T01:30:08.319Z,9.70
2022-11-12T01:32:37.795Z,9.70
2022-11-12T01:35:06.691Z,9.77
2022-11-12T01:37:34.413Z,9.95
2022-11-12T01:40:02.100Z,10.45
2022-11-12T01:42:32.933Z,10.00
2022-11-12T01:45:02.025Z,9.60
2022-11-12T01:47:32.260Z,9.88
2022-11-12T01:50:06.660Z,10.30
2022-11-12T01:52:37.778Z,10.35
2022-11-12T01:55:10.560Z,10.57
2022-11-12T01:57:40.824Z,10.10
2022-11-12T02:00:12.880Z,9.95
2022-11-12T02:02:41.793Z,10.07
2022-11-12T02:05:11.595Z,9.48
2022-11-12T02:07:42.000Z,9.35
2022-11-12T02:10:10.686Z,8.90
2022-11-12T02:12:56.663Z,10.07
2022-11-12T02:15:26.557Z,9.00
2022-11-12T02:17:54.533Z,9.27
2022-11-12T02:20:22.602Z,8.50
2022-11-12T02:22:51.615Z,9.55
2022-11-12T02:25:22.020Z,9.40
2022-11-12T02:27:52.035Z,9.40
2022-11-12T02:30:19.851Z,9.13
2022-11-12T02:32:47.565Z,9.20
2022-11-12T02:35:15.275Z,9.73
2022-11-12T02:37:42.919Z,8.43
2022-11-12T02:40:12.420Z,9.50
2022-11-12T02:42:40.071Z,8.85
2022-11-12T02:45:08.632Z,8.40
2022-11-12T02:47:36.321Z,8.73
2022-11-12T02:50:04.769Z,7.75
2022-11-12T02:52:32.950Z,8.07
2022-11-12T02:55:00.586Z,9.15
2022-11-12T02:57:30.908Z,9.57
2022-11-12T02:59:58.583Z,9.88
2022-11-12T03:02:26.326Z,7.82
2022-11-12T03:04:53.949Z,8.88
2022-11-12T03:07:21.691Z,8.18
2022-11-12T03:09:49.416Z,9.65
2022-11-12T03:12:17.141Z,8.27
2022-11-12T03:14:46.169Z,9.02
2022-11-12T03:17:13.820Z,8.15
2022-11-12T03:19:41.469Z,8.65
2022-11-12T03:22:09.289Z,8.75
2022-11-12T03:24:36.980Z,7.50
2022-11-12T03:27:04.796Z,9.02
2022-11-12T03:29:32.478Z,7.65
2022-11-12T03:32:01.518Z,6.93
2022-11-12T03:34:29.210Z,7.43
2022-11-12T03:36:56.890Z,7.38
2022-11-12T03:39:24.549Z,7.07
2022-11-12T03:41:52.262Z,7.97
2022-11-12T03:44:19.856Z,7.47
2022-11-12T03:46:47.460Z,7.78
2022-11-12T03:49:16.854Z,7.90
2022-11-12T03:51:44.542Z,7.57
2022-11-12T03:54:12.129Z,7.32
2022-11-12T03:56:40.137Z,6.53
2022-11-12T03:59:07.840Z,6.70
2022-11-12T04:01:35.533Z,6.93
2022-11-12T04:04:03.185Z,7.13
2022-11-12T04:06:49.537Z,6.50
2022-11-12T04:09:17.367Z,6.88
2022-11-12T04:11:45.008Z,7.00
2022-11-12T04:14:11.688Z,7.30
2022-11-12T04:16:56.960Z,5.85
2022-11-12T04:19:42.275Z,5.43
2022-11-12T04:22:12.362Z,6.15
2022-11-12T04:24:59.628Z,6.88
2022-11-12T04:27:29.874Z,6.47
2022-11-12T04:30:15.653Z,7.45
2022-11-12T04:32:48.917Z,7.50
2022-11-12T04:35:17.009Z,9.73
2022-11-12T04:37:46.253Z,7.15
2022-11-12T04:40:33.208Z,6.63
2022-11-12T04:43:19.054Z,6.40
2022-11-12T04:45:50.863Z,6.47
2022-11-12T04:48:18.610Z,6.60
2022-11-12T04:50:49.114Z,6.63
2022-11-12T04:53:18.399Z,7.15
2022-11-12T04:55:46.110Z,6.53
2022-11-12T04:58:13.745Z,6.15
2022-11-12T05:00:41.397Z,6.43
2022-11-12T05:03:09.136Z,7.70
2022-11-12T05:05:36.797Z,6.97
2022-11-12T05:08:04.790Z,6.82
2022-11-12T05:10:33.837Z,6.82
2022-11-12T05:13:01.771Z,7.45
2022-11-12T05:15:29.390Z,6.32
2022-11-12T05:17:57.013Z,7.15
2022-11-12T05:20:24.644Z,6.10
2022-11-12T05:23:05.784Z,7.65
2022-11-12T05:25:36.667Z,4.55
2022-11-12T05:28:06.850Z,6.10
2022-11-12T05:30:35.347Z,5.72
2022-11-12T05:33:03.041Z,6.90
2022-11-12T05:35:30.792Z,5.50
2022-11-12T05:37:58.463Z,4.70
2022-11-12T05:40:26.139Z,5.15
2022-11-12T05:42:55.144Z,6.00
2022-11-12T05:45:22.825Z,5.90
2022-11-12T05:47:50.437Z,5.68
2022-11-12T05:50:18.370Z,5.88
2022-11-12T05:52:46.634Z,6.80
2022-11-12T05:55:14.309Z,6.13
2022-11-12T05:57:41.981Z,6.20
2022-11-12T06:00:12.835Z,6.05
2022-11-12T06:02:40.559Z,5.55
2022-11-12T06:05:09.128Z,5.50
2022-11-12T06:07:37.002Z,5.90
2022-11-12T06:10:05.001Z,6.13
2022-11-12T06:12:32.749Z,6.05
2022-11-12T06:15:00.417Z,6.25
2022-11-12T06:17:29.416Z,5.88
2022-11-12T06:19:57.067Z,5.57
2022-11-12T06:22:24.709Z,5.78
2022-11-12T06:24:52.508Z,5.55
2022-11-12T06:27:20.272Z,6.03
2022-11-12T06:29:47.902Z,6.30
2022-11-12T06:32:15.628Z,5.53
2022-11-12T06:34:44.658Z,5.22
2022-11-12T06:37:12.405Z,5.20
2022-11-12T06:39:40.081Z,5.55
2022-11-12T06:42:07.754Z,6.03
2022-11-12T06:44:35.462Z,5.00
2022-11-12T06:47:03.284Z,5.60
2022-11-12T06:49:31.014Z,5.10
2022-11-12T06:52:00.092Z,4.57
2022-11-12T06:54:27.805Z,4.65
2022-11-12T06:56:55.504Z,5.60
2022-11-12T06:59:23.173Z,6.45
2022-11-12T07:01:50.933Z,6.10
2022-11-12T07:04:18.839Z,5.05
2022-11-12T07:06:46.645Z,5.18
2022-11-12T07:09:15.772Z,6.15
2022-11-12T07:11:43.495Z,5.60
2022-11-12T07:14:11.324Z,5.30
2022-11-12T07:16:39.078Z,5.70
2022-11-12T07:19:06.823Z,5.05
2022-11-12T07:21:34.469Z,5.68
2022-11-12T07:24:02.168Z,4.45
2022-11-12T07:26:31.259Z,5.25
2022-11-12T07:28:58.973Z,4.63
2022-11-12T07:31:26.901Z,5.00
2022-11-12T07:33:55.037Z,5.20
2022-11-12T07:36:22.970Z,4.75
2022-11-12T07:38:53.620Z,4.78
2022-11-12T07:41:23.046Z,4.57
2022-11-12T07:43:54.322Z,4.68
2022-11-12T07:46:23.963Z,5.35
2022-11-12T07:48:52.292Z,5.80
2022-11-12T07:51:21.945Z,5.47
2022-11-12T07:53:55.013Z,6.20
2022-11-12T07:56:27.983Z,6.05
2022-11-12T07:58:57.047Z,5.68
2022-11-12T08:01:29.523Z,5.20
2022-11-12T08:03:57.312Z,5.68
2022-11-12T08:06:25.517Z,10.55
2022-11-12T08:08:53.663Z,7.20
2022-11-12T08:11:21.557Z,7.22
2022-11-12T08:13:49.289Z,7.32
2022-11-12T08:16:18.639Z,6.65
2022-11-12T08:18:47.478Z,5.85
2022-11-12T08:21:17.881Z,6.20
2022-11-12T08:23:46.740Z,6.40
2022-11-12T08:26:16.006Z,6.63
2022-11-12T08:28:43.972Z,5.80
2022-11-12T08:31:13.889Z,6.30
2022-11-12T08:33:43.824Z,6.57
2022-11-12T08:36:14.125Z,6.57
2022-11-12T08:38:42.801Z,6.43
2022-11-12T08:41:12.304Z,5.65
2022-11-12T08:43:41.469Z,5.95
2022-11-12T08:46:09.269Z,5.07
2022-11-12T08:48:37.404Z,5.10
2022-11-12T08:51:07.913Z,4.43
2022-11-12T08:53:35.904Z,4.50
2022-11-12T08:56:03.881Z,5.00
2022-11-12T08:58:31.677Z,5.07
2022-11-12T09:01:05.573Z,4.00
2022-11-12T09:03:33.223Z,4.63
2022-11-12T09:06:04.329Z,4.77
2022-11-12T09:08:35.853Z,4.10
2022-11-12T09:13:53.607Z,5.20
2022-11-12T09:16:21.548Z,5.03
2022-11-12T09:18:49.362Z,4.50
2022-11-12T09:21:17.946Z,5.40
2022-11-12T09:23:47.821Z,4.67
2022-11-12T09:26:15.535Z,6.07
2022-11-12T09:28:43.214Z,4.43
2022-11-12T09:31:10.986Z,6.90
2022-11-12T09:33:38.717Z,6.63
2022-11-12T09:36:07.109Z,6.93
2022-11-12T09:38:34.786Z,4.67
2022-11-12T09:41:20.244Z,6.70
2022-11-12T09:43:51.169Z,6.07
2022-11-12T09:46:42.792Z,5.40
2022-11-12T09:49:15.685Z,6.70
2022-11-12T09:51:48.753Z,6.83
2022-11-12T09:54:23.805Z,6.70
2022-11-12T09:56:54.389Z,6.17
2022-11-12T09:59:23.938Z,8.20
2022-11-12T10:02:01.294Z,8.23
2022-11-12T10:04:55.574Z,8.17
2022-11-12T10:07:33.342Z,7.80
2022-11-12T10:10:05.268Z,7.40
2022-11-12T10:12:50.311Z,7.80
2022-11-12T10:15:54.974Z,8.20
2022-11-12T10:18:33.421Z,6.10
2022-11-12T10:21:12.088Z,5.70
2022-11-12T10:23:44.626Z,4.60
2022-11-12T10:26:14.775Z,5.20
2022-11-12T10:28:48.268Z,4.40
2022-11-12T10:31:17.379Z,4.83
2022-11-12T10:33:45.569Z,6.00
2022-11-12T10:36:27.719Z,5.80
2022-11-12T10:38:56.395Z,6.80
2022-11-12T10:41:26.767Z,7.17
2022-11-12T10:43:58.291Z,6.73
2022-11-12T10:46:28.891Z,6.70
2022-11-12T10:49:02.514Z,8.03
2022-11-12T10:51:35.255Z,7.60
2022-11-12T10:54:22.569Z,6.63
2022-11-12T10:56:54.983Z,6.77
2022-11-12T10:59:25.751Z,5.70
2022-11-12T11:01:58.694Z,5.57
2022-11-12T11:04:32.715Z,6.13
2022-11-12T11:07:03.895Z,6.40
2022-11-12T11:09:32.438Z,6.10
2022-11-12T11:12:00.474Z,6.10
2022-11-12T11:14:32.769Z,7.40
2022-11-12T11:17:04.377Z,7.97
2022-11-12T11:19:37.404Z,7.70
2022-11-12T11:22:29.717Z,7.53
2022-11-12T11:25:17.692Z,6.90
2022-11-12T11:27:58.998Z,8.40
2022-11-12T11:30:28.242Z,9.27
2022-11-12T11:33:19.775Z,8.30
2022-11-12T11:35:57.896Z,8.40
2022-11-12T11:38:34.828Z,8.70
2022-11-12T11:41:30.568Z,13.13
2022-11-12T11:44:13.999Z,8.47
2022-11-12T11:47:05.027Z,8.30
2022-11-12T11:49:52.914Z,8.07
2022-11-12T11:52:45.510Z,7.87
2022-11-12T11:55:28.418Z,7.70
2022-11-12T11:58:06.435Z,10.37
2022-11-12T12:00:47.174Z,8.27
2022-11-12T12:03:29.168Z,8.70
2022-11-12T12:06:17.365Z,8.63
2022-11-12T12:09:09.037Z,8.83
2022-11-12T12:11:47.569Z,8.43
2022-11-12T12:14:26.094Z,7.07
2022-11-12T12:17:03.761Z,8.47
2022-11-12T12:19:46.554Z,7.80
2022-11-12T12:22:17.487Z,7.27
2022-11-12T12:24:51.518Z,7.53
2022-11-12T12:27:23.550Z,7.33
2022-11-12T12:29:54.732Z,7.87
2022-11-12T12:32:28.084Z,7.47
2022-11-12T12:35:04.620Z,7.63
2022-11-12T12:37:39.339Z,8.33
2022-11-12T12:40:18.647Z,8.10
2022-11-12T12:42:53.585Z,8.00
2022-11-12T12:45:41.521Z,7.90
2022-11-12T12:48:16.656Z,7.33
2022-11-12T12:50:47.678Z,8.20
2022-11-12T12:53:32.132Z,7.87
2022-11-12T12:56:01.674Z,7.03
2022-11-12T12:58:31.082Z,6.13
2022-11-12T13:01:03.363Z,6.70
2022-11-12T13:03:52.999Z,7.27
2022-11-12T13:06:28.503Z,7.07
2022-11-12T13:09:01.063Z,6.77
2022-11-12T13:12:02.428Z,7.03
2022-11-12T13:15:08.510Z,6.90
2022-11-12T13:17:53.082Z,5.90
2022-11-12T13:20:39.460Z,6.20
2022-11-12T13:23:32.915Z,6.90
2022-11-12T13:26:36.844Z,6.27
2022-11-12T13:29:44.509Z,7.00
2022-11-12T13:32:32.274Z,7.10
2022-11-12T13:35:25.961Z,6.90
2022-11-12T13:37:56.455Z,7.60
2022-11-12T13:40:52.504Z,6.50
2022-11-12T13:43:35.206Z,7.50
2022-11-12T13:46:25.698Z,6.67
2022-11-12T13:49:00.034Z,6.97
2022-11-12T13:51:36.376Z,7.30
2022-11-12T13:54:34.995Z,6.20
2022-11-12T13:57:27.094Z,7.17
2022-11-12T14:00:20.687Z,7.60
2022-11-12T14:02:53.028Z,7.17
2022-11-12T14:05:24.323Z,6.63
2022-11-12T14:08:13.581Z,7.77
2022-11-12T14:10:54.605Z,6.70
2022-11-12T14:13:40.504Z,7.77
2022-11-12T14:16:27.116Z,7.03
2022-11-12T14:19:18.551Z,7.07
2022-11-12T14:21:59.677Z,7.10
2022-11-12T14:24:27.517Z,7.50
2022-11-12T14:26:55.197Z,6.77
2022-11-12T14:29:26.750Z,6.40
2022-11-12T14:32:03.024Z,6.77
2022-11-12T14:34:32.954Z,6.37
2022-11-12T14:37:01.099Z,6.90
2022-11-12T14:39:31.547Z,7.87
2022-11-12T14:42:00.633Z,7.23
2022-11-12T14:44:35.446Z,6.90
2022-11-12T14:47:03.682Z,7.80
2022-11-12T14:49:43.573Z,7.47
2022-11-12T14:52:16.671Z,7.60
2022-11-12T14:54:50.509Z,7.40
2022-11-12T14:57:24.375Z,7.40
2022-11-12T14:59:53.586Z,7.50
2022-11-12T15:02:36.040Z,7.70
2022-11-12T15:05:15.363Z,8.33
2022-11-12T15:07:54.421Z,9.57
2022-11-12T15:10:37.394Z,8.13
2022-11-12T15:13:07.828Z,7.93
2022-11-12T15:15:39.366Z,6.57
2022-11-12T15:18:15.147Z,6.10
2022-11-12T15:20:43.144Z,7.20
2022-11-12T15:23:18.722Z,8.13
2022-11-12T15:25:46.802Z,7.70
2022-11-12T15:28:22.148Z,8.40
2022-11-12T15:31:03.856Z,6.13
2022-11-12T15:33:31.591Z,6.70
2022-11-12T15:36:00.993Z,7.90
2022-11-12T15:38:31.902Z,6.50
2022-11-12T15:41:00.183Z,7.70
2022-11-12T15:43:30.633Z,7.45
2022-11-12T15:45:59.222Z,10.10
2022-11-12T15:48:28.408Z,9.00
2022-11-12T15:50:56.532Z,8.02
2022-11-12T15:53:24.280Z,9.90
2022-11-12T15:55:53.266Z,8.63
2022-11-12T15:58:29.006Z,8.75
2022-11-12T16:00:57.127Z,7.63
2022-11-12T16:03:25.662Z,8.45
2022-11-12T16:05:54.997Z,9.60
2022-11-12T16:08:22.878Z,7.72
2022-11-12T16:10:51.247Z,10.57
2022-11-12T16:13:25.477Z,9.68
2022-11-12T16:15:53.759Z,9.95
2022-11-12T16:18:21.748Z,8.95
2022-11-12T16:20:49.954Z,9.82
2022-11-12T16:23:19.066Z,9.63
2022-11-12T16:25:47.150Z,10.85
2022-11-12T16:28:17.048Z,10.57
2022-11-12T16:30:48.031Z,9.63
2022-11-12T16:33:15.838Z,10.57
2022-11-12T16:35:43.753Z,10.85
2022-11-12T16:38:14.863Z,11.43
2022-11-12T16:40:45.601Z,9.98
2022-11-12T16:43:13.476Z,9.00
2022-11-12T16:45:43.011Z,9.32
2022-11-12T16:48:16.082Z,9.48
2022-11-12T16:50:43.904Z,12.15
2022-11-12T16:53:11.798Z,10.00
2022-11-12T16:55:39.681Z,12.43
2022-11-12T16:58:12.626Z,9.10
2022-11-12T17:00:42.048Z,9.18
2022-11-12T17:03:13.781Z,9.30
2022-11-12T17:05:41.805Z,11.13
2022-11-12T17:08:10.507Z,9.23
2022-11-12T17:10:38.655Z,8.73
2022-11-12T17:13:06.394Z,11.00
2022-11-12T17:15:35.430Z,9.23
2022-11-12T17:18:03.313Z,9.80
2022-11-12T17:20:31.705Z,9.20
2022-11-12T17:22:59.441Z,9.55
2022-11-12T17:25:27.189Z,10.50
2022-11-12T17:27:54.849Z,9.85
2022-11-12T17:30:22.619Z,10.80
2022-11-12T17:32:51.680Z,10.35
2022-11-12T17:35:19.406Z,11.20
2022-11-12T17:37:47.164Z,11.00
2022-11-12T17:40:15.057Z,10.07
2022-11-12T17:42:42.888Z,11.48
2022-11-12T17:45:11.053Z,11.18
2022-11-12T17:47:40.639Z,10.15
2022-11-12T17:50:10.408Z,11.52
2022-11-12T17:52:38.195Z,14.43
2022-11-12T17:55:06.687Z,14.48
2022-11-12T17:57:34.475Z,16.20
2022-11-12T18:00:02.252Z,13.93
2022-11-12T18:02:30.123Z,14.32
2022-11-12T18:04:58.030Z,13.38
2022-11-12T18:07:27.313Z,13.18
2022-11-12T18:09:55.130Z,11.52
2022-11-12T18:12:22.892Z,11.45
2022-11-12T18:14:50.733Z,12.63
2022-11-12T18:17:19.284Z,13.00
2022-11-12T18:19:47.072Z,13.05
2022-11-12T18:22:15.902Z,13.68
2022-11-12T18:24:45.148Z,13.07
2022-11-12T18:27:12.827Z,13.70
2022-11-12T18:29:41.588Z,15.30
2022-11-12T18:32:09.691Z,14.30
2022-11-12T18:34:41.646Z,15.25
2022-11-12T18:37:09.755Z,14.38
2022-11-12T18:39:37.826Z,13.43
2022-11-12T18:42:07.340Z,14.45
2022-11-12T18:44:35.027Z,12.52
2022-11-12T18:47:03.166Z,13.65
2022-11-12T18:49:31.694Z,14.70
2022-11-12T18:51:59.833Z,14.40
2022-11-12T18:54:27.603Z,14.85
2022-11-12T18:56:55.306Z,14.30
2022-11-12T18:59:30.662Z,16.40
2022-11-12T19:01:58.705Z,12.85
2022-11-12T19:04:27.065Z,14.35
2022-11-12T19:06:56.155Z,14.00
2022-11-12T19:09:23.957Z,13.13
2022-11-12T19:11:51.850Z,13.63
2022-11-12T19:14:19.869Z,14.52
2022-11-12T19:16:49.013Z,15.05
2022-11-12T19:19:17.248Z,13.95
2022-11-12T19:21:45.212Z,15.13
2022-11-12T19:24:12.952Z,15.90
2022-11-12T19:26:40.646Z,15.50
2022-11-12T19:29:08.341Z,16.00
2022-11-12T19:31:36.129Z,17.10
2022-11-12T19:34:05.177Z,16.02
2022-11-12T19:36:32.828Z,14.80
2022-11-12T19:39:02.564Z,14.80
2022-11-12T19:41:30.408Z,13.68
2022-11-12T19:43:58.111Z,15.07
2022-11-12T19:46:26.222Z,17.20
2022-11-12T19:48:57.056Z,17.27
2022-11-12T19:51:26.213Z,16.30
2022-11-12T19:53:54.346Z,16.85
2022-11-12T19:56:22.437Z,14.30
2022-11-12T19:58:54.771Z,14.90
2022-11-12T20:01:22.658Z,15.93
2022-11-12T20:03:50.567Z,16.73
2022-11-12T20:06:20.162Z,18.90
2022-11-12T20:08:49.217Z,17.70
2022-11-12T20:11:18.832Z,16.70
2022-11-12T20:13:46.620Z,20.05
2022-11-12T20:16:19.487Z,18.90
2022-11-12T20:18:53.667Z,18.38
2022-11-12T20:21:21.364Z,18.73
2022-11-12T20:23:50.608Z,19.33
2022-11-12T20:26:18.439Z,18.50
2022-11-12T20:28:46.261Z,19.20
2022-11-12T20:31:15.968Z,18.02
2022-11-12T20:33:44.033Z,17.25
2022-11-12T20:36:14.063Z,17.85
2022-11-12T20:38:43.632Z,18.80
2022-11-12T20:41:16.704Z,19.63
2022-11-12T20:43:44.829Z,17.50
2022-11-12T20:46:13.303Z,16.80
2022-11-12T20:48:43.621Z,17.55
2022-11-12T20:51:24.682Z,16.98
2022-11-12T20:53:59.320Z,15.82
2022-11-12T20:56:31.189Z,14.48
2022-11-12T20:59:00.517Z,15.63
2022-11-12T21:01:30.152Z,15.50
2022-11-12T21:03:59.256Z,16.08
2022-11-12T21:06:29.638Z,15.68
2022-11-12T21:09:00.460Z,15.18
2022-11-12T21:11:31.367Z,15.30
2022-11-12T21:14:00.360Z,16.15
2022-11-12T21:16:28.428Z,13.93
2022-11-12T21:18:56.240Z,15.10
2022-11-12T21:21:24.038Z,13.55
2022-11-12T21:23:53.949Z,13.35
2022-11-12T21:26:23.342Z,15.98
2022-11-12T21:28:54.467Z,14.05
2022-11-12T21:31:24.510Z,13.50
2022-11-12T21:33:52.599Z,15.00
2022-11-12T21:36:21.229Z,14.13
2022-11-12T21:38:49.858Z,15.27
2022-11-12T21:41:19.736Z,14.43
2022-11-12T21:43:47.951Z,14.90
2022-11-12T21:46:19.872Z,16.48
2022-11-12T21:48:53.547Z,15.15
2022-11-12T21:51:24.815Z,15.52
2022-11-12T21:53:55.468Z,15.80
2022-11-12T21:56:23.726Z,14.35
2022-11-12T21:58:51.695Z,15.43
2022-11-12T22:01:22.890Z,15.10
2022-11-12T22:03:51.979Z,14.70
2022-11-12T22:06:21.863Z,14.50
2022-11-12T22:08:52.357Z,15.65
2022-11-12T22:11:20.092Z,15.68
2022-11-12T22:13:48.476Z,16.58
2022-11-12T22:16:17.798Z,19.17
2022-11-12T22:18:49.222Z,17.23
2022-11-12T22:21:18.620Z,15.65
2022-11-12T22:23:46.299Z,15.18
2022-11-12T22:26:15.889Z,14.48
2022-11-12T22:28:44.683Z,15.45
2022-11-12T22:31:14.564Z,15.65
2022-11-12T22:33:42.467Z,14.25
2022-11-12T22:36:13.969Z,14.48
2022-11-12T22:38:43.604Z,14.45
2022-11-12T22:41:13.059Z,14.45
2022-11-12T22:43:41.108Z,13.90
2022-11-12T22:46:11.714Z,14.65
2022-11-12T22:48:39.757Z,14.20
2022-11-12T22:51:11.003Z,14.75
2022-11-12T22:53:40.191Z,14.07
2022-11-12T22:56:09.974Z,14.98
2022-11-12T22:58:38.205Z,14.77
2022-11-12T23:01:06.961Z,14.68
2022-11-12T23:03:35.461Z,14.52
2022-11-12T23:06:06.050Z,13.48
2022-11-12T23:08:35.769Z,14.05
2022-11-12T23:11:06.728Z,15.27
2022-11-12T23:13:34.934Z,13.02
2022-11-12T23:16:03.644Z,13.60
2022-11-12T23:18:31.286Z,14.50
2022-11-12T23:21:02.950Z,13.40
2022-11-12T23:23:30.648Z,12.50
2022-11-12T23:26:04.677Z,12.00
2022-11-12T23:28:32.470Z,12.30
2022-11-12T23:31:00.246Z,13.55
2022-11-12T23:33:27.916Z,14.57
2022-11-12T23:35:55.674Z,12.20
2022-11-12T23:38:23.402Z,12.43
2022-11-12T23:40:55.054Z,12.35
2022-11-12T23:43:24.108Z,12.23
2022-11-12T23:45:52.238Z,13.40
2022-11-12T23:48:20.401Z,12.70
2022-11-12T23:50:48.925Z,12.73
2022-11-12T23:53:16.945Z,11.70
2022-11-12T23:55:45.465Z,12.65
2022-11-12T23:58:13.146Z,12.13
